Time;durP1;ratioP1;P1;durP2;ratioP2;P2;SDS_P1;SDS_P2;PMS_P1;PMS_P2;Temp;Humidity;BMP_temperature;BMP_pressure;BME280_temperature;BME280_humidity;BME280_pressure;Samples;Min_cycle;Max_cycle;Signal;HPM_P1;HPM_P2
2021/03/31 00:02:00;;;;;;;9.30;6.17;;;7.00;99.90;;;;;;4986460;28;20433;-91
2021/03/31 00:04:26;;;;;;;8.07;5.17;;;7.00;99.90;;;;;;4990753;28;20188;-91
2021/03/31 00:06:51;;;;;;;6.90;5.33;;;7.00;99.90;;;;;;5013498;28;20775;-91
2021/03/31 00:09:17;;;;;;;8.60;5.90;;;6.90;99.90;;;;;;4987867;28;20309;-90
2021/03/31 00:11:43;;;;;;;7.20;5.53;;;6.80;99.90;;;;;;4984921;28;20746;-90
2021/03/31 00:14:13;;;;;;;9.33;4.33;;;6.70;99.90;;;;;;5001035;28;20796;-90
2021/03/31 00:16:40;;;;;;;14.33;7.30;;;6.70;99.90;;;;;;4983464;28;20191;-90
2021/03/31 00:19:06;;;;;;;9.50;5.10;;;6.90;99.90;;;;;;4984185;28;20183;-92
2021/03/31 00:21:32;;;;;;;11.63;5.53;;;7.00;99.90;;;;;;4983303;28;20277;-88
2021/03/31 00:23:57;;;;;;;7.00;5.47;;;7.00;99.90;;;;;;4949375;28;20223;-90
2021/03/31 00:26:23;;;;;;;8.47;5.30;;;7.20;99.90;;;;;;4975899;28;20688;-89
2021/03/31 00:28:49;;;;;;;12.77;5.67;;;7.50;99.90;;;;;;4986229;28;20262;-90
2021/03/31 00:31:15;;;;;;;9.10;5.50;;;7.70;99.90;;;;;;5004934;28;20187;-91
2021/03/31 00:33:42;;;;;;;8.13;6.70;;;7.80;99.90;;;;;;5004578;28;20222;-90
2021/03/31 00:36:08;;;;;;;10.17;6.13;;;7.90;99.90;;;;;;4995813;28;20235;-90
2021/03/31 00:38:34;;;;;;;9.73;6.97;;;7.90;99.90;;;;;;4986580;28;20215;-89
2021/03/31 00:41:01;;;;;;;7.00;6.37;;;7.90;99.90;;;;;;4984277;28;20727;-90
2021/03/31 00:43:27;;;;;;;11.90;7.43;;;7.80;99.90;;;;;;5004057;28;20187;-90
2021/03/31 00:45:53;;;;;;;9.67;5.90;;;7.70;99.90;;;;;;5004369;28;20841;-90
2021/03/31 00:48:19;;;;;;;10.63;6.57;;;7.60;99.90;;;;;;4986086;28;20215;-90
2021/03/31 00:50:47;;;;;;;9.07;6.30;;;7.50;99.90;;;;;;4976724;28;20222;-90
2021/03/31 00:53:27;;;;;;;11.07;5.00;;;7.50;99.90;;;;;;4985817;28;20227;-88
2021/03/31 00:55:54;;;;;;;9.53;6.17;;;7.50;99.90;;;;;;5001638;28;20189;-93
2021/03/31 00:58:20;;;;;;;7.23;5.00;;;7.50;99.90;;;;;;4987496;28;20214;-90
2021/03/31 01:00:46;;;;;;;9.37;5.87;;;7.50;99.90;;;;;;4985987;28;20230;-91
2021/03/31 01:03:13;;;;;;;14.60;7.77;;;7.50;99.90;;;;;;4986186;28;20572;-91
2021/03/31 01:05:39;;;;;;;12.57;5.83;;;7.40;99.90;;;;;;4986937;28;20215;-89
2021/03/31 01:08:05;;;;;;;13.13;7.40;;;7.30;99.90;;;;;;4986877;28;20357;-90
2021/03/31 01:10:50;;;;;;;12.33;8.40;;;7.30;99.90;;;;;;4987670;28;20223;-92
2021/03/31 01:13:37;;;;;;;8.00;5.93;;;7.30;99.90;;;;;;5005093;28;20226;-89
2021/03/31 01:16:18;;;;;;;10.53;6.50;;;7.20;99.90;;;;;;5004942;28;20214;-89
2021/03/31 01:18:47;;;;;;;9.87;7.07;;;7.00;99.90;;;;;;5003341;28;20215;-88
2021/03/31 01:21:58;;;;;;;15.43;6.50;;;7.00;99.90;;;;;;5004660;28;20234;-89
2021/03/31 01:24:44;;;;;;;5.83;4.97;;;6.90;99.90;;;;;;4979122;28;20219;-91
2021/03/31 01:27:18;;;;;;;9.67;6.17;;;6.80;99.90;;;;;;4995067;28;20990;-90
2021/03/31 01:30:02;;;;;;;8.33;5.97;;;6.60;99.90;;;;;;4986038;28;20234;-89
2021/03/31 01:32:34;;;;;;;8.23;6.53;;;6.50;99.90;;;;;;4986414;28;20253;-90
2021/03/31 01:35:08;;;;;;;10.37;6.47;;;6.40;99.90;;;;;;4996777;28;20237;-90
2021/03/31 01:37:49;;;;;;;11.03;5.20;;;6.40;99.90;;;;;;5001963;28;20226;-88
2021/03/31 01:40:18;;;;;;;6.37;5.67;;;6.30;99.90;;;;;;5001889;28;20175;-91
2021/03/31 01:42:48;;;;;;;10.33;6.00;;;6.20;99.90;;;;;;4995206;28;20223;-89
2021/03/31 01:45:17;;;;;;;6.33;5.40;;;6.40;99.90;;;;;;4985851;28;20234;-91
2021/03/31 01:47:46;;;;;;;10.77;6.43;;;6.60;99.90;;;;;;4986266;28;20242;-90
2021/03/31 01:50:13;;;;;;;9.73;7.00;;;6.70;99.90;;;;;;5003258;28;20637;-90
2021/03/31 01:52:41;;;;;;;10.50;6.40;;;6.80;99.90;;;;;;4970041;28;20214;-90
2021/03/31 01:55:11;;;;;;;10.37;5.40;;;6.80;99.90;;;;;;4982499;28;20351;-90
2021/03/31 01:57:39;;;;;;;9.80;5.60;;;6.80;99.90;;;;;;4967876;28;20342;-91
2021/03/31 02:00:06;;;;;;;5.47;3.87;;;6.80;99.90;;;;;;4978111;28;20215;-90
2021/03/31 02:02:33;;;;;;;7.47;5.47;;;6.80;99.90;;;;;;4969477;28;20293;-89
2021/03/31 02:05:00;;;;;;;9.13;5.40;;;6.70;99.90;;;;;;5001275;28;20227;-92
2021/03/31 02:07:27;;;;;;;12.93;6.83;;;6.70;99.90;;;;;;4969757;28;20511;-90
2021/03/31 02:09:55;;;;;;;8.40;6.07;;;6.70;99.90;;;;;;4968773;28;20230;-89
2021/03/31 02:12:25;;;;;;;11.00;5.47;;;6.70;99.90;;;;;;4984475;28;20673;-90
2021/03/31 02:14:53;;;;;;;7.13;5.67;;;6.80;99.90;;;;;;4993907;28;20219;-89
2021/03/31 02:17:24;;;;;;;8.17;5.50;;;6.80;99.90;;;;;;4986627;28;20223;-90
2021/03/31 02:19:52;;;;;;;8.03;4.83;;;6.90;99.90;;;;;;4991056;28;20211;-90
2021/03/31 02:22:20;;;;;;;5.97;5.07;;;6.90;99.90;;;;;;4991408;28;20191;-90
2021/03/31 02:24:47;;;;;;;11.73;7.83;;;7.00;99.90;;;;;;5002455;28;20277;-90
2021/03/31 02:27:13;;;;;;;13.93;6.33;;;7.00;99.90;;;;;;4969325;28;20763;-91
2021/03/31 02:29:44;;;;;;;11.67;6.37;;;7.00;99.90;;;;;;4952712;28;20257;-90
2021/03/31 02:32:11;;;;;;;10.53;6.17;;;7.10;99.90;;;;;;4982115;28;20233;-90
2021/03/31 02:34:39;;;;;;;8.33;6.03;;;7.10;99.90;;;;;;4983605;28;20196;-87
2021/03/31 02:37:05;;;;;;;7.27;5.93;;;7.00;99.90;;;;;;4969598;28;20187;-89
2021/03/31 02:39:36;;;;;;;12.40;6.43;;;6.90;99.90;;;;;;4984816;28;20219;-88
2021/03/31 02:42:02;;;;;;;8.30;6.33;;;6.80;99.90;;;;;;4983103;28;20239;-90
2021/03/31 02:44:30;;;;;;;10.23;7.03;;;6.70;99.90;;;;;;4984793;28;20227;-90
2021/03/31 02:46:59;;;;;;;10.80;6.37;;;6.60;99.90;;;;;;5002478;28;20590;-90
2021/03/31 02:49:28;;;;;;;10.90;6.90;;;6.50;99.90;;;;;;4986288;28;20219;-90
2021/03/31 02:51:56;;;;;;;11.13;6.57;;;6.40;99.90;;;;;;5002686;28;20242;-90
2021/03/31 02:54:23;;;;;;;6.87;5.40;;;6.30;99.90;;;;;;4984020;28;20681;-90
2021/03/31 02:56:49;;;;;;;12.40;5.57;;;6.20;99.90;;;;;;4984398;28;20342;-90
2021/03/31 02:59:16;;;;;;;10.30;6.80;;;6.10;99.90;;;;;;4984973;28;20230;-90
2021/03/31 03:01:43;;;;;;;6.13;4.50;;;6.00;99.90;;;;;;4968063;28;20242;-90
2021/03/31 03:04:09;;;;;;;10.77;7.10;;;6.00;99.90;;;;;;4986459;28;20207;-91
2021/03/31 03:06:35;;;;;;;11.87;7.47;;;6.00;99.90;;;;;;4968126;28;20211;-90
2021/03/31 03:09:05;;;;;;;8.50;6.30;;;6.00;99.90;;;;;;4951615;28;20207;-90
2021/03/31 03:11:32;;;;;;;8.80;5.13;;;6.00;99.90;;;;;;4984625;28;20230;-90
2021/03/31 03:14:00;;;;;;;9.83;6.37;;;6.00;99.90;;;;;;4984449;28;20230;-91
2021/03/31 03:16:27;;;;;;;15.27;10.60;;;6.10;99.90;;;;;;4986250;28;20234;-90
2021/03/31 03:18:52;;;;;;;14.60;5.97;;;6.20;99.90;;;;;;4984365;28;20215;-89
2021/03/31 03:21:19;;;;;;;6.93;6.20;;;6.20;99.90;;;;;;4967479;28;20234;-90
2021/03/31 03:23:45;;;;;;;9.10;6.67;;;6.30;99.90;;;;;;4970591;28;20288;-91
2021/03/31 03:26:13;;;;;;;10.93;6.57;;;6.30;99.90;;;;;;4983781;28;20215;-90
2021/03/31 03:28:42;;;;;;;11.83;5.83;;;6.30;99.90;;;;;;4987328;28;20704;-90
2021/03/31 03:31:08;;;;;;;18.23;6.13;;;6.20;99.90;;;;;;5007139;28;20219;-91
2021/03/31 03:33:35;;;;;;;16.63;6.50;;;6.00;99.90;;;;;;4972221;28;20321;-90
2021/03/31 03:36:06;;;;;;;8.27;6.50;;;6.00;99.90;;;;;;4988262;28;20342;-90
2021/03/31 03:38:33;;;;;;;7.83;5.33;;;5.90;99.90;;;;;;4988652;28;20211;-90
2021/03/31 03:41:11;;;;;;;6.53;4.33;;;6.00;99.90;;;;;;4954010;28;20358;-89
2021/03/31 03:43:40;;;;;;;5.97;4.73;;;6.10;99.90;;;;;;4988422;28;20171;-90
2021/03/31 03:46:07;;;;;;;7.87;6.00;;;6.10;99.90;;;;;;4974813;28;20649;-92
2021/03/31 03:48:33;;;;;;;7.57;5.23;;;6.20;99.90;;;;;;4988158;28;20231;-92
2021/03/31 03:50:59;;;;;;;8.13;6.27;;;6.30;99.90;;;;;;4988018;28;20238;-89
2021/03/31 03:53:29;;;;;;;8.63;5.97;;;6.30;99.90;;;;;;4982041;28;20239;-89
2021/03/31 03:55:58;;;;;;;11.43;5.27;;;6.30;99.90;;;;;;5005178;28;20231;-90
2021/03/31 03:58:25;;;;;;;6.10;4.33;;;6.30;99.90;;;;;;4989220;28;20574;-90
2021/03/31 04:00:51;;;;;;;11.23;6.50;;;6.10;99.90;;;;;;4964447;28;20648;-90
2021/03/31 04:03:17;;;;;;;6.30;4.10;;;6.10;99.90;;;;;;5005479;28;20297;-91
2021/03/31 04:05:42;;;;;;;7.77;5.67;;;6.00;99.90;;;;;;4971631;28;20227;-89
2021/03/31 04:08:08;;;;;;;8.93;6.67;;;5.90;99.90;;;;;;4970923;28;20211;-90
2021/03/31 04:10:35;;;;;;;5.37;4.83;;;5.90;99.90;;;;;;4970855;28;20230;-86
2021/03/31 04:13:03;;;;;;;7.50;5.10;;;5.90;99.90;;;;;;5006532;28;21334;-89
2021/03/31 04:15:30;;;;;;;8.37;5.87;;;6.00;99.90;;;;;;4986818;28;20670;-90
2021/03/31 04:17:57;;;;;;;8.83;6.43;;;6.00;99.90;;;;;;4969258;28;20227;-89
2021/03/31 04:20:25;;;;;;;6.60;5.07;;;5.90;99.90;;;;;;4987396;28;20239;-92
2021/03/31 04:22:51;;;;;;;9.73;6.23;;;5.80;99.90;;;;;;4986658;28;20203;-89
2021/03/31 04:25:19;;;;;;;7.70;4.43;;;5.70;99.90;;;;;;4971852;28;20183;-88
2021/03/31 04:27:49;;;;;;;8.57;4.97;;;5.70;99.90;;;;;;5004603;28;20330;-89
2021/03/31 04:30:17;;;;;;;7.40;5.93;;;5.70;99.90;;;;;;5002646;28;20231;-85
2021/03/31 04:32:45;;;;;;;7.20;4.47;;;5.90;99.90;;;;;;4986045;28;20211;-84
2021/03/31 04:35:11;;;;;;;9.50;6.40;;;6.10;99.90;;;;;;5003405;28;20206;-85
2021/03/31 04:37:39;;;;;;;8.13;5.23;;;6.10;99.90;;;;;;4985534;28;20191;-84
2021/03/31 04:40:16;;;;;;;8.87;7.77;;;6.00;99.90;;;;;;4953332;28;20660;-86
2021/03/31 04:42:41;;;;;;;11.93;5.70;;;6.00;99.90;;;;;;4985186;28;20310;-85
2021/03/31 04:45:10;;;;;;;11.73;6.40;;;6.00;99.90;;;;;;4969525;28;20302;-86
2021/03/31 04:47:37;;;;;;;8.80;6.07;;;6.10;99.90;;;;;;5003860;28;20257;-86
2021/03/31 04:50:05;;;;;;;11.83;5.93;;;5.90;99.90;;;;;;5001770;28;20270;-84
2021/03/31 04:52:31;;;;;;;6.00;5.10;;;5.80;99.90;;;;;;5004921;28;20191;-85
2021/03/31 04:54:57;;;;;;;9.00;6.00;;;5.70;99.90;;;;;;4969439;28;20459;-87
2021/03/31 04:57:22;;;;;;;11.37;6.13;;;5.70;99.90;;;;;;4977588;28;20760;-86
2021/03/31 04:59:48;;;;;;;9.03;5.60;;;5.60;99.90;;;;;;4960129;28;20233;-85
2021/03/31 05:02:14;;;;;;;7.27;5.73;;;5.50;99.90;;;;;;4953744;28;20223;-86
2021/03/31 05:04:40;;;;;;;6.00;5.17;;;5.40;99.90;;;;;;5002190;28;20199;-85
2021/03/31 05:07:06;;;;;;;12.10;5.93;;;5.40;99.90;;;;;;4969220;28;20214;-87
2021/03/31 05:09:31;;;;;;;17.67;6.77;;;5.20;99.90;;;;;;4968525;28;20346;-85
2021/03/31 05:11:58;;;;;;;10.27;6.13;;;5.20;99.90;;;;;;4983883;28;20223;-87
2021/03/31 05:14:23;;;;;;;13.70;7.33;;;5.20;99.90;;;;;;4952814;28;20312;-87
2021/03/31 05:16:49;;;;;;;8.80;5.10;;;5.10;99.90;;;;;;5001148;28;20661;-87
2021/03/31 05:19:15;;;;;;;4.13;3.73;;;5.10;99.90;;;;;;4970368;28;20455;-88
2021/03/31 05:21:41;;;;;;;7.43;5.57;;;5.10;99.90;;;;;;4969588;28;20361;-87
2021/03/31 05:24:07;;;;;;;7.40;5.73;;;5.10;99.90;;;;;;4984963;28;20212;-86
2021/03/31 05:26:33;;;;;;;11.73;6.47;;;5.20;99.90;;;;;;4953184;28;20273;-87
2021/03/31 05:28:58;;;;;;;14.03;6.50;;;5.30;99.90;;;;;;5000768;28;20648;-87
2021/03/31 05:31:24;;;;;;;5.57;5.10;;;5.50;99.90;;;;;;4969809;28;20711;-87
2021/03/31 05:33:50;;;;;;;5.93;5.10;;;5.70;99.90;;;;;;4968697;28;20227;-86
2021/03/31 05:36:16;;;;;;;9.03;5.83;;;6.00;99.90;;;;;;4984549;28;20211;-84
2021/03/31 05:38:42;;;;;;;7.03;5.10;;;6.30;99.90;;;;;;5001137;28;20668;-84
2021/03/31 05:41:07;;;;;;;7.33;6.23;;;6.70;99.90;;;;;;4967593;28;20239;-85
2021/03/31 05:43:35;;;;;;;7.53;5.67;;;7.20;99.90;;;;;;4978891;28;20191;-90
2021/03/31 05:46:01;;;;;;;13.13;6.50;;;7.80;99.90;;;;;;5002678;28;20211;-88
2021/03/31 05:48:27;;;;;;;9.53;7.23;;;8.30;99.90;;;;;;4985013;28;20226;-89
2021/03/31 05:50:53;;;;;;;6.87;4.93;;;9.10;99.90;;;;;;4950786;28;20227;-88
2021/03/31 05:53:19;;;;;;;7.87;6.40;;;10.00;99.90;;;;;;4984583;28;20223;-86
2021/03/31 05:55:44;;;;;;;9.27;4.97;;;10.20;99.90;;;;;;4967556;28;20978;-85
2021/03/31 05:58:11;;;;;;;15.50;8.17;;;10.70;99.90;;;;;;4969792;28;20653;-86
2021/03/31 06:00:37;;;;;;;9.03;5.23;;;10.40;99.90;;;;;;4983917;28;20226;-87
2021/03/31 06:03:07;;;;;;;10.00;6.20;;;10.40;99.90;;;;;;4968792;28;20216;-90
2021/03/31 06:05:33;;;;;;;11.20;6.77;;;11.60;99.90;;;;;;4983863;28;20297;-87
2021/03/31 06:07:59;;;;;;;10.50;6.53;;;12.60;99.90;;;;;;4966901;28;20306;-85
2021/03/31 06:10:29;;;;;;;7.30;5.30;;;13.30;99.90;;;;;;4984834;28;20219;-86
2021/03/31 06:13:00;;;;;;;6.40;4.77;;;13.70;99.90;;;;;;5000229;28;20615;-85
2021/03/31 06:15:32;;;;;;;6.73;5.23;;;14.00;99.90;;;;;;4983676;28;20222;-85
2021/03/31 06:18:08;;;;;;;12.27;7.07;;;14.30;99.90;;;;;;5000399;28;20699;-85
2021/03/31 06:20:57;;;;;;;11.87;6.07;;;15.00;99.90;;;;;;5000610;28;20231;-86
2021/03/31 06:26:29;;;;;;;9.60;6.40;;;15.10;99.90;;;;;;5002207;28;20298;-87
2021/03/31 06:28:57;;;;;;;14.93;6.40;;;14.60;99.90;;;;;;4998997;28;20369;-88
2021/03/31 06:31:30;;;;;;;9.87;6.33;;;13.90;99.90;;;;;;4989880;28;20215;-83
2021/03/31 06:34:06;;;;;;;9.07;5.43;;;13.20;99.90;;;;;;5000367;28;20230;-85
2021/03/31 06:36:33;;;;;;;12.33;6.87;;;12.90;99.90;;;;;;5000575;28;20247;-87
2021/03/31 06:38:59;;;;;;;14.17;7.03;;;12.30;99.90;;;;;;4982334;28;20242;-86
2021/03/31 06:41:30;;;;;;;14.80;7.90;;;12.20;99.90;;;;;;4948848;28;20780;-85
2021/03/31 06:44:23;;;;;;;14.77;7.03;;;12.50;99.90;;;;;;4951189;28;20588;-85
2021/03/31 06:46:53;;;;;;;9.70;6.47;;;12.90;99.90;;;;;;4999174;28;20472;-86
2021/03/31 06:49:19;;;;;;;13.50;6.40;;;13.60;99.90;;;;;;4968903;28;20187;-86
2021/03/31 06:51:45;;;;;;;12.47;7.40;;;14.30;99.90;;;;;;5000806;28;20538;-89
2021/03/31 06:54:22;;;;;;;13.23;7.43;;;15.00;99.90;;;;;;4982894;28;20612;-90
2021/03/31 06:56:56;;;;;;;12.20;8.03;;;15.20;99.90;;;;;;4966109;28;20222;-92
2021/03/31 06:59:30;;;;;;;12.43;7.33;;;16.30;99.90;;;;;;4983240;28;20215;-90
2021/03/31 07:01:57;;;;;;;16.87;7.70;;;16.90;99.90;;;;;;4983323;28;20227;-91
2021/03/31 07:04:24;;;;;;;17.00;8.77;;;18.60;99.90;;;;;;4968052;28;20744;-91
2021/03/31 07:07:10;;;;;;;15.97;8.53;;;19.30;99.90;;;;;;4975416;28;20305;-91
2021/03/31 07:09:40;;;;;;;20.37;11.07;;;20.60;99.90;;;;;;4982269;28;20235;-91
2021/03/31 07:12:21;;;;;;;13.03;8.47;;;20.80;99.90;;;;;;4968021;28;20211;-91
2021/03/31 07:14:49;;;;;;;15.47;9.40;;;21.20;99.90;;;;;;4969494;28;20215;-88
2021/03/31 07:17:25;;;;;;;16.63;9.83;;;21.30;99.90;;;;;;4967936;28;20222;-92
2021/03/31 07:19:52;;;;;;;16.67;9.10;;;20.40;99.90;;;;;;4968165;28;20904;-90
2021/03/31 07:22:18;;;;;;;14.33;9.87;;;18.80;99.90;;;;;;4986408;28;20183;-91
2021/03/31 07:24:44;;;;;;;19.13;11.00;;;18.30;99.90;;;;;;4966078;28;20219;-88
2021/03/31 07:27:15;;;;;;;17.60;11.07;;;18.10;99.90;;;;;;4979028;28;617628;-91
2021/03/31 07:30:05;;;;;;;19.77;11.23;;;18.50;99.90;;;;;;4969726;28;20231;-89
2021/03/31 07:32:49;;;;;;;18.33;11.07;;;18.70;99.90;;;;;;4980407;28;20230;-87
2021/03/31 07:35:17;;;;;;;16.70;10.70;;;19.30;99.90;;;;;;4995016;28;20214;-88
2021/03/31 07:37:45;;;;;;;19.90;11.63;;;18.70;99.90;;;;;;4976326;28;20210;-91
2021/03/31 07:40:13;;;;;;;16.97;11.07;;;18.70;99.90;;;;;;5002775;28;20191;-89
2021/03/31 07:42:46;;;;;;;21.17;11.63;;;19.20;99.90;;;;;;4968224;28;20228;-88
2021/03/31 07:45:16;;;;;;;20.70;11.87;;;20.70;99.90;;;;;;4978049;28;20223;-90
2021/03/31 07:47:44;;;;;;;18.80;11.00;;;21.30;99.90;;;;;;4952335;28;20219;-90
2021/03/31 07:50:12;;;;;;;22.63;11.97;;;21.50;99.90;;;;;;4983044;28;20223;-89
2021/03/31 07:52:49;;;;;;;18.90;11.53;;;21.10;99.90;;;;;;4978999;28;20241;-90
2021/03/31 07:55:40;;;;;;;19.93;12.27;;;20.80;99.90;;;;;;4984794;28;20671;-92
2021/03/31 07:58:28;;;;;;;19.40;11.33;;;21.50;99.90;;;;;;4996620;28;20250;-88
2021/03/31 08:01:06;;;;;;;19.50;11.70;;;22.20;99.90;;;;;;4983891;28;20230;-87
2021/03/31 08:03:37;;;;;;;20.83;12.77;;;22.80;99.90;;;;;;4975887;28;20596;-89
2021/03/31 08:06:36;;;;;;;20.73;12.57;;;22.30;99.90;;;;;;4981557;28;20219;-88
2021/03/31 08:09:07;;;;;;;22.50;14.23;;;22.00;99.90;;;;;;4963600;28;20306;-89
2021/03/31 08:11:39;;;;;;;22.10;12.70;;;22.00;99.90;;;;;;4986620;28;20230;-90
2021/03/31 08:14:13;;;;;;;19.70;13.70;;;21.70;99.90;;;;;;4984909;28;20636;-92
2021/03/31 08:16:42;;;;;;;20.20;12.83;;;20.80;99.90;;;;;;4985685;28;20201;-89
2021/03/31 08:19:31;;;;;;;20.95;12.98;;;21.70;99.90;;;;;;4989779;28;20207;-88
2021/03/31 08:22:17;;;;;;;21.92;12.90;;;21.90;99.90;;;;;;4963842;28;20285;-88
2021/03/31 08:24:46;;;;;;;17.60;13.23;;;23.30;99.90;;;;;;4987079;28;20557;-88
2021/03/31 08:27:13;;;;;;;21.30;13.68;;;25.90;99.40;;;;;;4986360;28;20509;-89
2021/03/31 08:29:42;;;;;;;25.35;13.63;;;26.90;98.80;;;;;;4970319;28;20234;-89
2021/03/31 08:32:09;;;;;;;21.83;14.13;;;27.90;97.50;;;;;;4994009;28;20247;-91
2021/03/31 08:34:37;;;;;;;21.52;14.70;;;28.50;96.50;;;;;;4987030;28;20657;-88
2021/03/31 08:37:06;;;;;;;24.13;14.45;;;28.40;93.50;;;;;;5006400;28;20230;-90
2021/03/31 08:39:35;;;;;;;25.52;14.30;;;28.40;94.90;;;;;;5004063;28;20315;-89
2021/03/31 08:42:03;;;;;;;20.38;14.02;;;28.30;92.60;;;;;;4968505;28;20211;-88
2021/03/31 08:44:33;;;;;;;22.85;13.32;;;28.80;93.00;;;;;;4986388;28;20806;-88
2021/03/31 08:47:23;;;;;;;21.95;13.32;;;29.30;91.80;;;;;;4986244;28;20223;-91
2021/03/31 08:50:07;;;;;;;22.38;13.63;;;29.30;88.50;;;;;;4986354;28;20212;-88
2021/03/31 08:52:35;;;;;;;21.20;13.38;;;29.50;90.60;;;;;;4987116;28;20191;-88
2021/03/31 08:55:08;;;;;;;20.55;14.20;;;30.10;90.40;;;;;;4986505;28;20231;-88
2021/03/31 08:57:36;;;;;;;25.20;14.38;;;30.10;90.00;;;;;;4993842;28;21031;-88
2021/03/31 09:00:05;;;;;;;22.85;14.05;;;30.40;86.70;;;;;;4967860;28;20219;-91
2021/03/31 09:02:34;;;;;;;25.20;13.82;;;30.20;85.50;;;;;;4995101;28;20702;-88
2021/03/31 09:05:02;;;;;;;25.35;13.90;;;29.70;88.70;;;;;;4984162;28;20279;-88
2021/03/31 09:07:29;;;;;;;25.00;13.80;;;30.40;89.50;;;;;;4985885;28;20195;-89
2021/03/31 09:09:55;;;;;;;23.98;13.98;;;30.30;85.40;;;;;;5002112;28;20223;-87
2021/03/31 09:12:25;;;;;;;20.67;13.57;;;30.40;82.70;;;;;;4968791;28;20219;-87
2021/03/31 09:14:53;;;;;;;23.73;13.23;;;30.30;80.80;;;;;;4968271;28;20221;-89
2021/03/31 09:17:21;;;;;;;22.75;14.43;;;30.10;82.70;;;;;;5000356;28;20220;-90
2021/03/31 09:19:50;;;;;;;22.40;12.32;;;30.30;80.00;;;;;;5002256;28;20223;-89
2021/03/31 09:22:28;;;;;;;22.80;13.90;;;29.90;79.70;;;;;;4970536;28;20234;-92
2021/03/31 09:25:07;;;;;;;22.33;13.43;;;29.60;79.30;;;;;;4987096;28;20241;-92
2021/03/31 09:27:34;;;;;;;24.90;13.32;;;29.60;79.90;;;;;;4993621;28;20243;-90
2021/03/31 09:30:05;;;;;;;21.85;12.63;;;29.40;75.80;;;;;;4980853;28;20223;-91
2021/03/31 09:32:36;;;;;;;19.27;13.32;;;28.50;75.90;;;;;;5001415;28;20227;-90
2021/03/31 09:35:09;;;;;;;24.42;14.38;;;28.80;77.90;;;;;;4987567;28;21037;-87
2021/03/31 09:37:51;;;;;;;24.60;13.60;;;29.40;77.00;;;;;;4986647;28;20222;-88
2021/03/31 09:40:24;;;;;;;20.58;13.52;;;27.50;77.70;;;;;;4982304;28;21152;-90
2021/03/31 09:43:02;;;;;;;19.90;12.35;;;26.30;82.30;;;;;;4985712;28;20219;-91
2021/03/31 09:45:30;;;;;;;21.27;13.77;;;26.70;84.10;;;;;;5004176;28;20297;-90
2021/03/31 09:47:57;;;;;;;23.05;12.82;;;27.90;79.90;;;;;;4985981;28;20218;-89
2021/03/31 09:50:24;;;;;;;21.95;12.88;;;28.50;79.40;;;;;;4981534;28;21109;-90
2021/03/31 09:52:59;;;;;;;24.35;12.00;;;28.20;81.00;;;;;;4962007;28;20191;-89
2021/03/31 09:55:26;;;;;;;24.58;14.02;;;28.70;78.90;;;;;;4989368;28;20337;-90
2021/03/31 09:57:53;;;;;;;22.30;12.93;;;29.00;81.00;;;;;;4968994;28;20308;-88
2021/03/31 10:00:21;;;;;;;22.55;13.32;;;29.50;79.40;;;;;;4984483;28;20394;-89
2021/03/31 10:02:50;;;;;;;20.90;14.18;;;28.60;77.60;;;;;;4985288;28;20212;-90
2021/03/31 10:05:24;;;;;;;26.92;14.48;;;26.50;81.00;;;;;;5003681;28;20219;-90
2021/03/31 10:08:05;;;;;;;21.80;13.80;;;25.40;82.90;;;;;;4971016;28;20206;-89
2021/03/31 10:10:54;;;;;;;22.98;13.88;;;26.70;85.80;;;;;;5004657;28;20687;-90
2021/03/31 10:13:24;;;;;;;25.27;14.73;;;28.10;80.50;;;;;;5002438;28;20306;-91
2021/03/31 10:16:14;;;;;;;27.15;14.90;;;28.40;78.50;;;;;;4985014;28;20428;-91
2021/03/31 10:18:41;;;;;;;31.00;14.93;;;29.10;75.70;;;;;;4985228;28;20219;-92
2021/03/31 10:21:07;;;;;;;27.88;15.10;;;29.10;76.20;;;;;;4969146;28;20231;-89
2021/03/31 10:23:38;;;;;;;31.88;16.80;;;29.20;75.30;;;;;;4968788;28;20219;-90
2021/03/31 10:26:20;;;;;;;26.35;14.85;;;29.40;74.80;;;;;;4984848;28;20235;-89
2021/03/31 10:28:46;;;;;;;26.52;16.33;;;30.30;75.40;;;;;;4984377;28;20269;-90
2021/03/31 10:31:24;;;;;;;26.13;15.20;;;30.40;73.00;;;;;;4986996;28;20179;-89
2021/03/31 10:33:51;;;;;;;31.45;16.75;;;30.70;72.90;;;;;;4984468;28;20269;-88
2021/03/31 10:36:43;;;;;;;28.17;15.13;;;31.30;75.00;;;;;;4992618;28;20230;-90
2021/03/31 10:39:47;;;;;;;37.78;17.25;;;31.50;71.30;;;;;;4991922;28;20218;-90
2021/03/31 10:50:23;;;;;;;30.70;16.73;;;31.40;73.00;;;;;;4984687;28;20238;-91
2021/03/31 10:52:51;;;;;;;29.60;16.65;;;30.80;70.80;;;;;;4966663;28;20198;-91
2021/03/31 10:55:17;;;;;;;33.05;17.63;;;31.00;74.30;;;;;;4968966;28;20191;-91
2021/03/31 10:57:43;;;;;;;31.52;17.15;;;30.80;74.70;;;;;;4984061;28;20223;-92
2021/03/31 11:00:09;;;;;;;32.47;18.92;;;30.50;74.00;;;;;;4983642;28;21251;-91
2021/03/31 11:02:35;;;;;;;28.35;15.90;;;30.60;73.30;;;;;;4966150;28;20269;-90
2021/03/31 11:05:00;;;;;;;35.90;18.17;;;30.20;75.90;;;;;;4951285;28;20693;-92
2021/03/31 11:07:26;;;;;;;34.55;18.15;;;30.50;71.50;;;;;;4969712;28;20329;-90
2021/03/31 11:09:52;;;;;;;33.05;17.58;;;30.50;75.00;;;;;;4984083;28;20246;-90
2021/03/31 11:12:18;;;;;;;36.00;18.52;;;30.30;71.60;;;;;;4951453;28;20583;-90
2021/03/31 11:14:44;;;;;;;36.67;17.75;;;30.00;70.20;;;;;;4951397;28;20661;-92
2021/03/31 11:17:23;;;;;;;34.67;17.70;;;29.30;73.70;;;;;;4966966;28;20238;-89
2021/03/31 11:25:37;;;;;;;33.25;18.05;;;30.20;70.90;;;;;;4974708;28;20219;-92
2021/03/31 11:28:03;;;;;;;30.33;16.50;;;29.60;70.50;;;;;;4958251;28;20238;-92
2021/03/31 11:30:29;;;;;;;35.83;17.38;;;28.60;72.80;;;;;;4966292;28;20272;-93
2021/03/31 11:32:54;;;;;;;34.15;17.15;;;28.40;73.80;;;;;;4949201;28;20219;-91
2021/03/31 11:35:20;;;;;;;37.85;17.45;;;28.80;72.60;;;;;;4982481;28;20215;-91
2021/03/31 11:37:46;;;;;;;39.65;16.90;;;28.30;76.60;;;;;;5001641;28;20305;-90
2021/03/31 11:40:12;;;;;;;30.80;16.92;;;28.40;76.60;;;;;;4968228;28;20293;-89
2021/03/31 11:42:38;;;;;;;34.22;16.70;;;29.10;76.70;;;;;;4949438;28;20211;-89
2021/03/31 11:45:04;;;;;;;32.47;16.23;;;29.40;74.90;;;;;;4954364;28;20215;-90
2021/03/31 11:47:30;;;;;;;34.30;16.75;;;29.20;70.50;;;;;;4987169;28;20247;-92
2021/03/31 11:49:56;;;;;;;37.10;16.65;;;28.40;72.10;;;;;;4953799;28;20261;-91
2021/03/31 11:52:22;;;;;;;30.13;16.83;;;27.60;75.70;;;;;;5007088;28;20175;-89
2021/03/31 11:54:47;;;;;;;33.20;16.08;;;27.90;74.80;;;;;;4971277;28;20319;-89
2021/03/31 11:57:13;;;;;;;33.25;15.38;;;27.70;71.90;;;;;;4954983;28;20218;-86
2021/03/31 11:59:39;;;;;;;31.58;16.30;;;27.90;74.40;;;;;;4971130;28;20227;-88
2021/03/31 12:02:05;;;;;;;30.58;15.20;;;28.20;75.00;;;;;;4970587;28;20677;-91
2021/03/31 12:04:32;;;;;;;36.13;16.10;;;28.20;72.50;;;;;;4972490;28;20187;-87
2021/03/31 12:06:58;;;;;;;31.85;15.82;;;28.00;71.90;;;;;;4988697;28;20216;-89
2021/03/31 12:09:24;;;;;;;34.88;16.60;;;27.80;71.60;;;;;;4972451;28;20285;-90
2021/03/31 12:11:50;;;;;;;33.72;15.85;;;27.40;73.40;;;;;;4972799;28;20233;-89
2021/03/31 12:14:16;;;;;;;33.67;15.48;;;26.90;73.00;;;;;;4956194;28;20606;-89
2021/03/31 12:16:44;;;;;;;31.38;14.80;;;26.30;73.40;;;;;;4972895;28;20659;-89
2021/03/31 12:19:10;;;;;;;28.80;15.70;;;26.00;74.00;;;;;;4999093;28;20183;-90
2021/03/31 12:21:36;;;;;;;36.00;15.60;;;25.90;75.30;;;;;;4988429;28;20822;-90
2021/03/31 12:24:02;;;;;;;34.10;15.32;;;26.10;74.30;;;;;;4987662;28;20233;-88
2021/03/31 12:26:28;;;;;;;35.45;14.38;;;26.20;73.40;;;;;;4981174;28;20565;-88
2021/03/31 12:28:58;;;;;;;30.35;14.05;;;26.30;74.20;;;;;;4963737;28;20224;-88
2021/03/31 12:31:23;;;;;;;33.40;15.30;;;26.50;77.40;;;;;;4974747;28;20189;-93
2021/03/31 12:33:49;;;;;;;28.83;13.75;;;26.60;76.60;;;;;;4932689;28;20217;-91
2021/03/31 12:36:15;;;;;;;30.08;15.15;;;26.30;70.30;;;;;;4973500;28;20220;-88
2021/03/31 12:38:41;;;;;;;31.33;14.95;;;25.60;73.40;;;;;;4965471;28;20357;-89
2021/03/31 12:41:07;;;;;;;28.88;14.70;;;25.40;75.60;;;;;;4979496;28;20665;-89
2021/03/31 12:43:34;;;;;;;33.40;15.10;;;25.30;71.50;;;;;;4966387;28;20243;-89
2021/03/31 12:46:00;;;;;;;28.17;14.43;;;25.10;72.30;;;;;;4973127;28;20217;-88
2021/03/31 12:48:27;;;;;;;31.75;15.13;;;25.20;77.20;;;;;;4965043;28;20606;-93
2021/03/31 12:50:59;;;;;;;29.60;13.20;;;25.40;73.40;;;;;;4964931;28;20224;-88
2021/03/31 12:53:29;;;;;;;33.08;13.73;;;25.00;72.90;;;;;;4963434;28;20232;-89
2021/03/31 12:55:56;;;;;;;30.20;13.13;;;24.80;77.10;;;;;;4949262;28;20228;-88
2021/03/31 12:58:23;;;;;;;34.70;17.65;;;25.10;79.30;;;;;;4966918;28;20184;-89
2021/03/31 13:00:52;;;;;;;31.98;16.13;;;24.30;92.30;;;;;;4941511;28;20312;-90
2021/03/31 13:03:17;;;;;;;34.30;15.88;;;24.10;92.90;;;;;;4957833;28;20227;-88
2021/03/31 13:05:43;;;;;;;35.47;17.40;;;23.70;92.90;;;;;;4935883;28;20208;-91
2021/03/31 13:08:12;;;;;;;34.00;16.60;;;23.10;95.80;;;;;;4976412;28;21299;-88
2021/03/31 13:10:40;;;;;;;31.05;16.42;;;22.60;95.70;;;;;;4933971;28;20185;-89